sensor_id;sensor_type;location;lat;lon;timestamp;temperature;humidity
52387;DHT22;38317;53.084;6.960;2023-02-24T00:00:05;4.40;99.90
52387;DHT22;38317;53.084;6.960;2023-02-24T00:02:58;4.50;99.90
52387;DHT22;38317;53.084;6.960;2023-02-24T00:05:24;4.40;99.90
52387;DHT22;38317;53.084;6.960;2023-02-24T00:07:50;4.40;99.90
52387;DHT22;38317;53.084;6.960;2023-02-24T00:10:16;4.40;99.90
52387;DHT22;38317;53.084;6.960;2023-02-24T00:12:45;4.40;99.90
52387;DHT22;38317;53.084;6.960;2023-02-24T00:15:13;4.40;99.90
52387;DHT22;38317;53.084;6.960;2023-02-24T00:17:42;4.40;99.90
52387;DHT22;38317;53.084;6.960;2023-02-24T00:20:12;4.40;99.90
52387;DHT22;38317;53.084;6.960;2023-02-24T00:22:41;4.40;99.90
52387;DHT22;38317;53.084;6.960;2023-02-24T00:25:07;4.40;99.90
52387;DHT22;38317;53.084;6.960;2023-02-24T00:27:33;4.40;99.90
52387;DHT22;38317;53.084;6.960;2023-02-24T00:30:00;4.40;99.90
52387;DHT22;38317;53.084;6.960;2023-02-24T00:32:26;4.30;99.90
52387;DHT22;38317;53.084;6.960;2023-02-24T00:34:52;4.30;99.90
52387;DHT22;38317;53.084;6.960;2023-02-24T00:37:18;4.70;99.90
52387;DHT22;38317;53.084;6.960;2023-02-24T00:39:51;4.30;99.90
52387;DHT22;38317;53.084;6.960;2023-02-24T00:42:22;4.20;99.90
52387;DHT22;38317;53.084;6.960;2023-02-24T00:44:47;4.20;99.90
52387;DHT22;38317;53.084;6.960;2023-02-24T00:47:15;4.10;99.90
52387;DHT22;38317;53.084;6.960;2023-02-24T00:49:42;4.10;99.90
52387;DHT22;38317;53.084;6.960;2023-02-24T00:52:13;4.00;99.90
52387;DHT22;38317;53.084;6.960;2023-02-24T00:54:40;4.00;99.90
52387;DHT22;38317;53.084;6.960;2023-02-24T00:57:06;4.00;99.90
52387;DHT22;38317;53.084;6.960;2023-02-24T00:59:35;3.90;99.90
52387;DHT22;38317;53.084;6.960;2023-02-24T01:02:00;3.90;99.90
52387;DHT22;38317;53.084;6.960;2023-02-24T01:04:28;3.90;99.90
52387;DHT22;38317;53.084;6.960;2023-02-24T01:06:54;3.80;99.90
52387;DHT22;38317;53.084;6.960;2023-02-24T01:09:25;3.80;99.90
52387;DHT22;38317;53.084;6.960;2023-02-24T01:11:52;3.70;99.90
52387;DHT22;38317;53.084;6.960;2023-02-24T01:14:36;3.70;99.90
52387;DHT22;38317;53.084;6.960;2023-02-24T01:17:06;3.70;99.90
52387;DHT22;38317;53.084;6.960;2023-02-24T01:19:33;3.60;99.90
52387;DHT22;38317;53.084;6.960;2023-02-24T01:22:01;3.60;99.90
52387;DHT22;38317;53.084;6.960;2023-02-24T01:24:30;3.60;99.90
52387;DHT22;38317;53.084;6.960;2023-02-24T01:26:56;3.50;99.90
52387;DHT22;38317;53.084;6.960;2023-02-24T01:29:22;3.50;99.90
52387;DHT22;38317;53.084;6.960;2023-02-24T01:31:48;3.50;99.90
52387;DHT22;38317;53.084;6.960;2023-02-24T01:34:16;3.50;99.90
52387;DHT22;38317;53.084;6.960;2023-02-24T01:36:43;3.50;99.90
52387;DHT22;38317;53.084;6.960;2023-02-24T01:39:10;3.40;99.90
52387;DHT22;38317;53.084;6.960;2023-02-24T01:41:42;3.40;99.90
52387;DHT22;38317;53.084;6.960;2023-02-24T01:46:44;3.40;99.90
52387;DHT22;38317;53.084;6.960;2023-02-24T01:49:18;3.30;99.90
52387;DHT22;38317;53.084;6.960;2023-02-24T01:54:16;3.30;99.90
52387;DHT22;38317;53.084;6.960;2023-02-24T01:56:46;3.20;99.90
52387;DHT22;38317;53.084;6.960;2023-02-24T01:59:14;3.20;99.90
52387;DHT22;38317;53.084;6.960;2023-02-24T02:01:41;3.20;99.90
52387;DHT22;38317;53.084;6.960;2023-02-24T02:04:45;3.20;99.90
52387;DHT22;38317;53.084;6.960;2023-02-24T02:07:17;3.20;99.90
52387;DHT22;38317;53.084;6.960;2023-02-24T02:09:45;3.20;99.90
52387;DHT22;38317;53.084;6.960;2023-02-24T02:12:12;3.10;99.90
52387;DHT22;38317;53.084;6.960;2023-02-24T02:14:42;3.10;99.90
52387;DHT22;38317;53.084;6.960;2023-02-24T02:23:29;3.10;99.90
52387;DHT22;38317;53.084;6.960;2023-02-24T02:40:40;3.00;99.90
52387;DHT22;38317;53.084;6.960;2023-02-24T02:43:27;3.00;99.90
52387;DHT22;38317;53.084;6.960;2023-02-24T02:46:00;3.00;99.90
52387;DHT22;38317;53.084;6.960;2023-02-24T02:51:22;3.30;99.90
52387;DHT22;38317;53.084;6.960;2023-02-24T02:56:41;3.00;99.90
52387;DHT22;38317;53.084;6.960;2023-02-24T02:59:08;3.00;99.90
52387;DHT22;38317;53.084;6.960;2023-02-24T03:01:39;3.00;99.90
52387;DHT22;38317;53.084;6.960;2023-02-24T03:04:09;3.00;99.90
52387;DHT22;38317;53.084;6.960;2023-02-24T03:06:43;3.10;99.90
52387;DHT22;38317;53.084;6.960;2023-02-24T03:09:16;3.10;99.90
52387;DHT22;38317;53.084;6.960;2023-02-24T03:11:46;3.10;99.90
52387;DHT22;38317;53.084;6.960;2023-02-24T03:14:15;3.20;99.90
52387;DHT22;38317;53.084;6.960;2023-02-24T03:16:45;3.20;99.90
52387;DHT22;38317;53.084;6.960;2023-02-24T03:19:16;3.30;99.90
52387;DHT22;38317;53.084;6.960;2023-02-24T03:22:09;3.30;99.90
52387;DHT22;38317;53.084;6.960;2023-02-24T03:24:37;3.30;99.90
52387;DHT22;38317;53.084;6.960;2023-02-24T03:27:38;3.30;99.90
52387;DHT22;38317;53.084;6.960;2023-02-24T03:30:36;3.30;99.90
52387;DHT22;38317;53.084;6.960;2023-02-24T03:33:32;3.40;99.90
52387;DHT22;38317;53.084;6.960;2023-02-24T03:35:55;3.40;99.90
52387;DHT22;38317;53.084;6.960;2023-02-24T03:38:27;3.40;99.90
52387;DHT22;38317;53.084;6.960;2023-02-24T03:40:56;3.40;99.90
52387;DHT22;38317;53.084;6.960;2023-02-24T03:43:27;3.90;99.90
52387;DHT22;38317;53.084;6.960;2023-02-24T03:45:53;3.40;99.90
52387;DHT22;38317;53.084;6.960;2023-02-24T03:48:20;3.40;99.90
52387;DHT22;38317;53.084;6.960;2023-02-24T03:50:46;3.40;99.90
52387;DHT22;38317;53.084;6.960;2023-02-24T03:56:34;3.40;99.90
52387;DHT22;38317;53.084;6.960;2023-02-24T03:59:36;3.40;99.90
52387;DHT22;38317;53.084;6.960;2023-02-24T04:02:27;3.40;99.90
52387;DHT22;38317;53.084;6.960;2023-02-24T04:05:06;3.40;99.90
52387;DHT22;38317;53.084;6.960;2023-02-24T04:08:01;3.40;99.90
52387;DHT22;38317;53.084;6.960;2023-02-24T04:10:52;3.40;99.90
52387;DHT22;38317;53.084;6.960;2023-02-24T04:13:45;3.40;99.90
52387;DHT22;38317;53.084;6.960;2023-02-24T04:16:20;3.40;99.90
52387;DHT22;38317;53.084;6.960;2023-02-24T04:18:58;3.40;99.90
52387;DHT22;38317;53.084;6.960;2023-02-24T04:21:28;3.40;99.90
52387;DHT22;38317;53.084;6.960;2023-02-24T04:24:00;3.40;99.90
52387;DHT22;38317;53.084;6.960;2023-02-24T04:26:31;3.40;99.90
52387;DHT22;38317;53.084;6.960;2023-02-24T04:28:58;3.40;99.90
52387;DHT22;38317;53.084;6.960;2023-02-24T04:31:25;3.40;99.90
52387;DHT22;38317;53.084;6.960;2023-02-24T04:33:52;3.50;99.90
52387;DHT22;38317;53.084;6.960;2023-02-24T04:36:19;3.50;99.90
52387;DHT22;38317;53.084;6.960;2023-02-24T04:38:45;3.50;99.90
52387;DHT22;38317;53.084;6.960;2023-02-24T04:41:13;3.50;99.90
52387;DHT22;38317;53.084;6.960;2023-02-24T04:43:49;3.50;99.90
52387;DHT22;38317;53.084;6.960;2023-02-24T04:46:18;3.60;99.90
52387;DHT22;38317;53.084;6.960;2023-02-24T04:48:44;3.60;99.90
52387;DHT22;38317;53.084;6.960;2023-02-24T04:51:10;3.60;99.90
52387;DHT22;38317;53.084;6.960;2023-02-24T04:53:36;3.70;99.90
52387;DHT22;38317;53.084;6.960;2023-02-24T04:56:04;3.60;99.90
52387;DHT22;38317;53.084;6.960;2023-02-24T04:58:35;3.60;99.90
52387;DHT22;38317;53.084;6.960;2023-02-24T05:01:08;3.60;99.90
52387;DHT22;38317;53.084;6.960;2023-02-24T05:03:36;3.60;99.90
52387;DHT22;38317;53.084;6.960;2023-02-24T05:06:02;3.60;99.90
52387;DHT22;38317;53.084;6.960;2023-02-24T05:08:31;3.70;99.90
52387;DHT22;38317;53.084;6.960;2023-02-24T05:10:57;3.70;99.90
52387;DHT22;38317;53.084;6.960;2023-02-24T05:13:29;3.70;99.90
52387;DHT22;38317;53.084;6.960;2023-02-24T05:15:58;3.70;99.90
52387;DHT22;38317;53.084;6.960;2023-02-24T05:18:25;3.70;99.90
52387;DHT22;38317;53.084;6.960;2023-02-24T05:20:55;3.70;99.90
52387;DHT22;38317;53.084;6.960;2023-02-24T05:23:42;3.70;99.90
52387;DHT22;38317;53.084;6.960;2023-02-24T05:26:16;3.80;99.90
52387;DHT22;38317;53.084;6.960;2023-02-24T05:28:45;3.80;99.90
52387;DHT22;38317;53.084;6.960;2023-02-24T05:31:16;3.80;99.90
52387;DHT22;38317;53.084;6.960;2023-02-24T05:33:45;3.80;99.90
52387;DHT22;38317;53.084;6.960;2023-02-24T05:36:14;3.80;99.90
52387;DHT22;38317;53.084;6.960;2023-02-24T05:38:42;3.80;99.90
52387;DHT22;38317;53.084;6.960;2023-02-24T05:41:14;3.80;99.90
52387;DHT22;38317;53.084;6.960;2023-02-24T05:43:47;3.90;99.90
52387;DHT22;38317;53.084;6.960;2023-02-24T05:46:28;3.90;99.90
52387;DHT22;38317;53.084;6.960;2023-02-24T05:49:15;3.90;99.90
52387;DHT22;38317;53.084;6.960;2023-02-24T05:51:45;3.90;99.90
52387;DHT22;38317;53.084;6.960;2023-02-24T05:54:20;3.90;99.90
52387;DHT22;38317;53.084;6.960;2023-02-24T05:56:47;3.90;99.90
52387;DHT22;38317;53.084;6.960;2023-02-24T05:59:13;3.90;99.90
52387;DHT22;38317;53.084;6.960;2023-02-24T06:01:46;3.90;99.90
52387;DHT22;38317;53.084;6.960;2023-02-24T06:04:14;3.90;99.90
52387;DHT22;38317;53.084;6.960;2023-02-24T06:07:05;3.90;99.90
52387;DHT22;38317;53.084;6.960;2023-02-24T06:09:31;3.90;99.90
52387;DHT22;38317;53.084;6.960;2023-02-24T06:11:57;4.00;99.90
52387;DHT22;38317;53.084;6.960;2023-02-24T06:14:23;3.90;99.90
52387;DHT22;38317;53.084;6.960;2023-02-24T06:16:49;4.00;99.90
52387;DHT22;38317;53.084;6.960;2023-02-24T06:19:15;3.90;99.90
52387;DHT22;38317;53.084;6.960;2023-02-24T06:21:41;3.90;99.90
52387;DHT22;38317;53.084;6.960;2023-02-24T06:24:12;3.90;99.90
52387;DHT22;38317;53.084;6.960;2023-02-24T06:26:40;5.40;99.90
52387;DHT22;38317;53.084;6.960;2023-02-24T06:29:11;3.90;99.90
52387;DHT22;38317;53.084;6.960;2023-02-24T06:31:38;4.00;99.90
52387;DHT22;38317;53.084;6.960;2023-02-24T06:34:04;3.90;99.90
52387;DHT22;38317;53.084;6.960;2023-02-24T06:36:29;3.90;99.90
52387;DHT22;38317;53.084;6.960;2023-02-24T06:38:59;3.90;99.90
52387;DHT22;38317;53.084;6.960;2023-02-24T06:41:24;3.90;99.90
52387;DHT22;38317;53.084;6.960;2023-02-24T06:43:54;3.90;99.90
52387;DHT22;38317;53.084;6.960;2023-02-24T06:46:20;3.90;99.90
52387;DHT22;38317;53.084;6.960;2023-02-24T06:48:45;3.90;99.90
52387;DHT22;38317;53.084;6.960;2023-02-24T06:51:14;3.90;99.90
52387;DHT22;38317;53.084;6.960;2023-02-24T06:53:41;4.00;99.90
52387;DHT22;38317;53.084;6.960;2023-02-24T06:56:12;4.00;99.90
52387;DHT22;38317;53.084;6.960;2023-02-24T06:58:47;4.00;99.90
52387;DHT22;38317;53.084;6.960;2023-02-24T07:01:17;4.00;99.90
52387;DHT22;38317;53.084;6.960;2023-02-24T07:03:44;4.00;99.90
52387;DHT22;38317;53.084;6.960;2023-02-24T07:06:41;4.00;99.90
52387;DHT22;38317;53.084;6.960;2023-02-24T07:09:09;4.00;99.90
52387;DHT22;38317;53.084;6.960;2023-02-24T07:11:38;4.00;99.90
52387;DHT22;38317;53.084;6.960;2023-02-24T07:14:07;4.00;99.90
52387;DHT22;38317;53.084;6.960;2023-02-24T07:16:34;4.00;99.90
52387;DHT22;38317;53.084;6.960;2023-02-24T07:19:02;4.00;99.90
52387;DHT22;38317;53.084;6.960;2023-02-24T07:21:30;4.00;99.90
52387;DHT22;38317;53.084;6.960;2023-02-24T07:24:05;4.00;99.90
52387;DHT22;38317;53.084;6.960;2023-02-24T07:26:31;4.00;99.90
52387;DHT22;38317;53.084;6.960;2023-02-24T07:28:59;4.10;99.90
52387;DHT22;38317;53.084;6.960;2023-02-24T07:31:30;4.10;99.90
52387;DHT22;38317;53.084;6.960;2023-02-24T07:34:01;4.10;99.90
52387;DHT22;38317;53.084;6.960;2023-02-24T07:36:27;4.10;99.90
52387;DHT22;38317;53.084;6.960;2023-02-24T07:39:04;4.10;99.90
52387;DHT22;38317;53.084;6.960;2023-02-24T07:41:30;4.10;99.90
52387;DHT22;38317;53.084;6.960;2023-02-24T07:43:56;4.10;99.90
52387;DHT22;38317;53.084;6.960;2023-02-24T07:46:25;4.10;99.90
52387;DHT22;38317;53.084;6.960;2023-02-24T07:48:53;4.10;99.90
52387;DHT22;38317;53.084;6.960;2023-02-24T07:51:21;4.10;99.90
52387;DHT22;38317;53.084;6.960;2023-02-24T07:53:53;4.10;99.90
52387;DHT22;38317;53.084;6.960;2023-02-24T07:56:22;4.10;99.90
52387;DHT22;38317;53.084;6.960;2023-02-24T07:59:03;4.20;99.90
52387;DHT22;38317;53.084;6.960;2023-02-24T08:01:36;4.20;99.90
52387;DHT22;38317;53.084;6.960;2023-02-24T08:04:08;4.20;99.90
52387;DHT22;38317;53.084;6.960;2023-02-24T08:06:41;4.20;99.90
52387;DHT22;38317;53.084;6.960;2023-02-24T08:09:12;4.20;99.90
52387;DHT22;38317;53.084;6.960;2023-02-24T08:11:51;4.20;99.90
52387;DHT22;38317;53.084;6.960;2023-02-24T08:14:22;4.20;99.90
52387;DHT22;38317;53.084;6.960;2023-02-24T08:16:51;4.20;99.90
52387;DHT22;38317;53.084;6.960;2023-02-24T08:19:25;4.30;99.90
52387;DHT22;38317;53.084;6.960;2023-02-24T08:21:58;4.30;99.90
52387;DHT22;38317;53.084;6.960;2023-02-24T08:24:49;4.30;99.90
52387;DHT22;38317;53.084;6.960;2023-02-24T08:27:16;4.30;99.90
52387;DHT22;38317;53.084;6.960;2023-02-24T08:29:47;4.30;99.90
52387;DHT22;38317;53.084;6.960;2023-02-24T08:32:39;4.30;99.90
52387;DHT22;38317;53.084;6.960;2023-02-24T08:35:10;4.30;99.90
52387;DHT22;38317;53.084;6.960;2023-02-24T08:37:51;4.40;99.90
52387;DHT22;38317;53.084;6.960;2023-02-24T08:40:27;4.40;99.90
52387;DHT22;38317;53.084;6.960;2023-02-24T08:45:45;4.40;99.90
52387;DHT22;38317;53.084;6.960;2023-02-24T08:48:16;4.50;99.90
52387;DHT22;38317;53.084;6.960;2023-02-24T08:50:55;4.50;99.90
52387;DHT22;38317;53.084;6.960;2023-02-24T08:53:22;4.50;99.90
52387;DHT22;38317;53.084;6.960;2023-02-24T08:55:49;4.50;99.90
52387;DHT22;38317;53.084;6.960;2023-02-24T08:58:19;4.60;99.90
52387;DHT22;38317;53.084;6.960;2023-02-24T09:00:52;4.60;99.90
52387;DHT22;38317;53.084;6.960;2023-02-24T09:03:24;4.70;99.90
52387;DHT22;38317;53.084;6.960;2023-02-24T09:06:07;4.70;99.90
52387;DHT22;38317;53.084;6.960;2023-02-24T09:08:38;4.70;99.90
52387;DHT22;38317;53.084;6.960;2023-02-24T09:11:07;4.70;99.90
52387;DHT22;38317;53.084;6.960;2023-02-24T09:13:38;4.70;99.90
52387;DHT22;38317;53.084;6.960;2023-02-24T09:16:17;4.80;99.90
52387;DHT22;38317;53.084;6.960;2023-02-24T09:18:44;4.80;99.90
52387;DHT22;38317;53.084;6.960;2023-02-24T09:21:13;4.80;99.90
52387;DHT22;38317;53.084;6.960;2023-02-24T09:23:59;4.80;99.90
52387;DHT22;38317;53.084;6.960;2023-02-24T09:26:28;4.80;99.90
52387;DHT22;38317;53.084;6.960;2023-02-24T09:28:57;4.90;99.90
52387;DHT22;38317;53.084;6.960;2023-02-24T09:31:24;4.90;99.90
52387;DHT22;38317;53.084;6.960;2023-02-24T09:34:07;4.90;99.90
52387;DHT22;38317;53.084;6.960;2023-02-24T09:36:35;4.90;99.90
52387;DHT22;38317;53.084;6.960;2023-02-24T09:39:10;5.00;99.90
52387;DHT22;38317;53.084;6.960;2023-02-24T09:41:47;5.00;99.90
52387;DHT22;38317;53.084;6.960;2023-02-24T09:45:06;5.00;99.90
52387;DHT22;38317;53.084;6.960;2023-02-24T09:47:45;5.10;99.90
52387;DHT22;38317;53.084;6.960;2023-02-24T09:53:04;5.10;99.90
52387;DHT22;38317;53.084;6.960;2023-02-24T09:55:58;5.10;99.90
52387;DHT22;38317;53.084;6.960;2023-02-24T09:58:41;5.10;99.90
52387;DHT22;38317;53.084;6.960;2023-02-24T10:01:36;5.10;99.90
52387;DHT22;38317;53.084;6.960;2023-02-24T10:10:24;5.30;99.90
52387;DHT22;38317;53.084;6.960;2023-02-24T10:15:41;5.40;99.90
52387;DHT22;38317;53.084;6.960;2023-02-24T10:20:54;5.40;99.90
52387;DHT22;38317;53.084;6.960;2023-02-24T10:23:51;5.50;99.90
52387;DHT22;38317;53.084;6.960;2023-02-24T10:27:08;5.60;99.90
52387;DHT22;38317;53.084;6.960;2023-02-24T10:35:14;5.80;99.90
52387;DHT22;38317;53.084;6.960;2023-02-24T10:37:41;5.90;99.90
52387;DHT22;38317;53.084;6.960;2023-02-24T10:40:09;6.00;99.90
52387;DHT22;38317;53.084;6.960;2023-02-24T10:42:37;6.20;99.90
52387;DHT22;38317;53.084;6.960;2023-02-24T10:45:21;6.30;99.90
52387;DHT22;38317;53.084;6.960;2023-02-24T10:47:53;6.60;99.90
52387;DHT22;38317;53.084;6.960;2023-02-24T10:50:32;6.80;99.90
52387;DHT22;38317;53.084;6.960;2023-02-24T10:53:27;7.10;99.90
52387;DHT22;38317;53.084;6.960;2023-02-24T10:56:05;7.40;99.90
52387;DHT22;38317;53.084;6.960;2023-02-24T10:59:08;7.60;99.90
52387;DHT22;38317;53.084;6.960;2023-02-24T11:01:59;7.60;99.90
52387;DHT22;38317;53.084;6.960;2023-02-24T11:04:36;7.60;99.90
52387;DHT22;38317;53.084;6.960;2023-02-24T11:07:29;7.50;99.90
52387;DHT22;38317;53.084;6.960;2023-02-24T11:10:16;7.40;99.90
52387;DHT22;38317;53.084;6.960;2023-02-24T11:12:51;7.50;99.90
52387;DHT22;38317;53.084;6.960;2023-02-24T11:15:43;7.70;99.90
52387;DHT22;38317;53.084;6.960;2023-02-24T11:18:29;7.80;99.90
52387;DHT22;38317;53.084;6.960;2023-02-24T11:21:03;7.70;99.90
52387;DHT22;38317;53.084;6.960;2023-02-24T11:23:35;7.60;99.90
52387;DHT22;38317;53.084;6.960;2023-02-24T11:36:47;7.80;99.90
52387;DHT22;38317;53.084;6.960;2023-02-24T11:42:14;7.80;99.90
52387;DHT22;38317;53.084;6.960;2023-02-24T11:47:44;7.90;99.90
52387;DHT22;38317;53.084;6.960;2023-02-24T11:50:36;8.20;99.90
52387;DHT22;38317;53.084;6.960;2023-02-24T11:53:37;8.40;99.90
52387;DHT22;38317;53.084;6.960;2023-02-24T11:59:07;8.70;99.90
52387;DHT22;38317;53.084;6.960;2023-02-24T12:04:35;8.80;99.90
52387;DHT22;38317;53.084;6.960;2023-02-24T12:10:22;8.90;99.90
52387;DHT22;38317;53.084;6.960;2023-02-24T12:15:26;9.30;99.90
52387;DHT22;38317;53.084;6.960;2023-02-24T12:18:11;9.50;99.90
52387;DHT22;38317;53.084;6.960;2023-02-24T12:20:45;9.60;99.90
52387;DHT22;38317;53.084;6.960;2023-02-24T12:23:21;9.60;99.90
52387;DHT22;38317;53.084;6.960;2023-02-24T12:40:50;7.90;99.90
52387;DHT22;38317;53.084;6.960;2023-02-24T12:46:33;7.60;99.90
52387;DHT22;38317;53.084;6.960;2023-02-24T12:54:39;7.60;99.90
52387;DHT22;38317;53.084;6.960;2023-02-24T12:59:41;7.60;99.90
52387;DHT22;38317;53.084;6.960;2023-02-24T13:02:34;7.60;99.90
52387;DHT22;38317;53.084;6.960;2023-02-24T13:05:08;7.60;99.90
52387;DHT22;38317;53.084;6.960;2023-02-24T13:10:42;7.80;99.90
52387;DHT22;38317;53.084;6.960;2023-02-24T13:13:11;7.80;99.90
52387;DHT22;38317;53.084;6.960;2023-02-24T13:16:00;7.80;99.90
52387;DHT22;38317;53.084;6.960;2023-02-24T13:18:31;7.90;99.90
52387;DHT22;38317;53.084;6.960;2023-02-24T13:23:52;8.20;99.90
52387;DHT22;38317;53.084;6.960;2023-02-24T13:26:23;8.30;99.90
52387;DHT22;38317;53.084;6.960;2023-02-24T13:28:58;8.50;99.90
52387;DHT22;38317;53.084;6.960;2023-02-24T13:31:24;8.70;99.90
52387;DHT22;38317;53.084;6.960;2023-02-24T13:33:51;8.80;99.90
52387;DHT22;38317;53.084;6.960;2023-02-24T13:36:20;8.70;99.90
52387;DHT22;38317;53.084;6.960;2023-02-24T13:38:48;8.60;99.90
52387;DHT22;38317;53.084;6.960;2023-02-24T13:46:55;8.50;99.90
52387;DHT22;38317;53.084;6.960;2023-02-24T13:52:01;8.40;99.90
52387;DHT22;38317;53.084;6.960;2023-02-24T13:57:24;8.20;99.90
52387;DHT22;38317;53.084;6.960;2023-02-24T14:00:17;8.00;99.90
52387;DHT22;38317;53.084;6.960;2023-02-24T14:02:47;8.00;99.90
52387;DHT22;38317;53.084;6.960;2023-02-24T14:05:27;7.90;99.90
52387;DHT22;38317;53.084;6.960;2023-02-24T14:07:54;7.90;99.90
52387;DHT22;38317;53.084;6.960;2023-02-24T14:10:27;7.80;99.90
52387;DHT22;38317;53.084;6.960;2023-02-24T14:13:15;7.70;99.90
52387;DHT22;38317;53.084;6.960;2023-02-24T14:15:44;7.60;99.90
52387;DHT22;38317;53.084;6.960;2023-02-24T14:18:23;7.60;99.90
52387;DHT22;38317;53.084;6.960;2023-02-24T14:20:51;7.40;99.90
52387;DHT22;38317;53.084;6.960;2023-02-24T14:23:23;7.30;99.90
52387;DHT22;38317;53.084;6.960;2023-02-24T14:25:58;7.40;99.90
52387;DHT22;38317;53.084;6.960;2023-02-24T14:28:35;7.40;99.90
52387;DHT22;38317;53.084;6.960;2023-02-24T14:31:22;7.40;99.90
52387;DHT22;38317;53.084;6.960;2023-02-24T14:33:55;7.40;99.90
52387;DHT22;38317;53.084;6.960;2023-02-24T14:36:24;7.40;99.90
52387;DHT22;38317;53.084;6.960;2023-02-24T14:41:41;7.30;99.90
52387;DHT22;38317;53.084;6.960;2023-02-24T14:44:23;7.40;99.90
52387;DHT22;38317;53.084;6.960;2023-02-24T14:49:28;7.40;99.90
52387;DHT22;38317;53.084;6.960;2023-02-24T14:52:16;7.40;99.90
52387;DHT22;38317;53.084;6.960;2023-02-24T14:54:54;7.50;99.90
52387;DHT22;38317;53.084;6.960;2023-02-24T14:57:30;7.50;99.90
52387;DHT22;38317;53.084;6.960;2023-02-24T15:00:22;7.40;99.90
52387;DHT22;38317;53.084;6.960;2023-02-24T15:03:22;7.30;99.90
52387;DHT22;38317;53.084;6.960;2023-02-24T15:05:51;7.30;99.90
52387;DHT22;38317;53.084;6.960;2023-02-24T15:08:38;7.30;99.90
52387;DHT22;38317;53.084;6.960;2023-02-24T15:11:17;7.20;99.90
52387;DHT22;38317;53.084;6.960;2023-02-24T15:13:55;7.20;99.90
52387;DHT22;38317;53.084;6.960;2023-02-24T15:16:45;7.20;99.90
52387;DHT22;38317;53.084;6.960;2023-02-24T15:19:31;7.20;99.90
52387;DHT22;38317;53.084;6.960;2023-02-24T15:21:58;7.20;99.90
52387;DHT22;38317;53.084;6.960;2023-02-24T15:24:30;7.20;99.90
52387;DHT22;38317;53.084;6.960;2023-02-24T15:27:47;7.10;99.90
52387;DHT22;38317;53.084;6.960;2023-02-24T15:30:07;7.10;99.90
52387;DHT22;38317;53.084;6.960;2023-02-24T15:33:19;7.10;99.90
52387;DHT22;38317;53.084;6.960;2023-02-24T15:35:52;7.00;99.90
52387;DHT22;38317;53.084;6.960;2023-02-24T15:38:28;7.00;99.90
52387;DHT22;38317;53.084;6.960;2023-02-24T15:40:58;7.00;99.90
52387;DHT22;38317;53.084;6.960;2023-02-24T15:46:23;6.20;99.90
52387;DHT22;38317;53.084;6.960;2023-02-24T15:48:50;6.70;99.90
52387;DHT22;38317;53.084;6.960;2023-02-24T15:51:28;6.70;99.90
52387;DHT22;38317;53.084;6.960;2023-02-24T15:53:55;6.60;99.90
52387;DHT22;38317;53.084;6.960;2023-02-24T15:56:21;6.50;99.90
52387;DHT22;38317;53.084;6.960;2023-02-24T15:58:47;6.50;99.90
52387;DHT22;38317;53.084;6.960;2023-02-24T16:01:13;6.50;99.90
52387;DHT22;38317;53.084;6.960;2023-02-24T16:03:39;6.50;99.90
52387;DHT22;38317;53.084;6.960;2023-02-24T16:06:05;6.50;99.90
52387;DHT22;38317;53.084;6.960;2023-02-24T16:08:32;6.50;99.90
52387;DHT22;38317;53.084;6.960;2023-02-24T16:10:58;6.50;99.90
52387;DHT22;38317;53.084;6.960;2023-02-24T16:13:25;6.50;99.90
52387;DHT22;38317;53.084;6.960;2023-02-24T16:15:52;6.60;99.90
52387;DHT22;38317;53.084;6.960;2023-02-24T16:18:22;6.50;99.90
52387;DHT22;38317;53.084;6.960;2023-02-24T16:20:50;6.50;99.90
52387;DHT22;38317;53.084;6.960;2023-02-24T16:23:20;6.40;99.90
52387;DHT22;38317;53.084;6.960;2023-02-24T16:25:47;6.40;99.90
52387;DHT22;38317;53.084;6.960;2023-02-24T16:28:15;6.40;99.90
52387;DHT22;38317;53.084;6.960;2023-02-24T16:30:41;6.40;99.90
52387;DHT22;38317;53.084;6.960;2023-02-24T16:33:11;6.30;99.90
52387;DHT22;38317;53.084;6.960;2023-02-24T16:35:37;6.30;99.90
52387;DHT22;38317;53.084;6.960;2023-02-24T16:38:03;6.30;99.90
52387;DHT22;38317;53.084;6.960;2023-02-24T16:40:33;6.30;99.90
52387;DHT22;38317;53.084;6.960;2023-02-24T16:43:02;6.20;99.90
52387;DHT22;38317;53.084;6.960;2023-02-24T16:45:31;6.10;99.90
52387;DHT22;38317;53.084;6.960;2023-02-24T16:48:00;6.10;99.90
52387;DHT22;38317;53.084;6.960;2023-02-24T16:50:30;6.00;99.90
52387;DHT22;38317;53.084;6.960;2023-02-24T16:52:58;5.90;99.90
52387;DHT22;38317;53.084;6.960;2023-02-24T16:55:24;5.90;99.90
52387;DHT22;38317;53.084;6.960;2023-02-24T16:57:50;5.80;99.90
52387;DHT22;38317;53.084;6.960;2023-02-24T17:00:17;5.80;99.90
52387;DHT22;38317;53.084;6.960;2023-02-24T17:02:46;5.70;99.90
52387;DHT22;38317;53.084;6.960;2023-02-24T17:05:20;5.90;99.90
52387;DHT22;38317;53.084;6.960;2023-02-24T17:07:50;5.60;99.90
52387;DHT22;38317;53.084;6.960;2023-02-24T17:10:17;5.60;99.90
52387;DHT22;38317;53.084;6.960;2023-02-24T17:12:43;5.50;99.90
52387;DHT22;38317;53.084;6.960;2023-02-24T17:15:14;5.50;99.90
52387;DHT22;38317;53.084;6.960;2023-02-24T17:17:40;5.50;99.90
52387;DHT22;38317;53.084;6.960;2023-02-24T17:20:06;5.40;99.90
52387;DHT22;38317;53.084;6.960;2023-02-24T17:22:32;5.40;99.90
52387;DHT22;38317;53.084;6.960;2023-02-24T17:24:58;5.50;99.90
52387;DHT22;38317;53.084;6.960;2023-02-24T17:27:24;5.40;99.90
52387;DHT22;38317;53.084;6.960;2023-02-24T17:29:50;5.40;99.90
52387;DHT22;38317;53.084;6.960;2023-02-24T17:32:15;5.50;99.90
52387;DHT22;38317;53.084;6.960;2023-02-24T17:34:41;5.50;99.90
52387;DHT22;38317;53.084;6.960;2023-02-24T17:37:07;5.40;99.90
52387;DHT22;38317;53.084;6.960;2023-02-24T17:39:33;5.50;99.90
52387;DHT22;38317;53.084;6.960;2023-02-24T17:41:58;5.40;99.90
52387;DHT22;38317;53.084;6.960;2023-02-24T17:44:24;5.40;99.90
52387;DHT22;38317;53.084;6.960;2023-02-24T17:46:50;5.40;99.90
52387;DHT22;38317;53.084;6.960;2023-02-24T17:49:16;5.40;99.90
52387;DHT22;38317;53.084;6.960;2023-02-24T17:51:42;5.40;99.90
52387;DHT22;38317;53.084;6.960;2023-02-24T17:54:08;5.40;99.90
52387;DHT22;38317;53.084;6.960;2023-02-24T17:56:34;5.30;99.90
52387;DHT22;38317;53.084;6.960;2023-02-24T17:59:00;5.30;99.90
52387;DHT22;38317;53.084;6.960;2023-02-24T18:01:27;5.30;99.90
52387;DHT22;38317;53.084;6.960;2023-02-24T18:03:53;5.30;99.90
52387;DHT22;38317;53.084;6.960;2023-02-24T18:06:22;5.20;99.90
52387;DHT22;38317;53.084;6.960;2023-02-24T18:08:51;5.20;99.90
52387;DHT22;38317;53.084;6.960;2023-02-24T18:11:18;5.10;99.90
52387;DHT22;38317;53.084;6.960;2023-02-24T18:13:44;5.20;99.90
52387;DHT22;38317;53.084;6.960;2023-02-24T18:16:11;5.20;99.90
52387;DHT22;38317;53.084;6.960;2023-02-24T18:18:38;5.10;99.90
52387;DHT22;38317;53.084;6.960;2023-02-24T18:21:05;5.10;99.90
52387;DHT22;38317;53.084;6.960;2023-02-24T18:23:33;5.10;99.90
52387;DHT22;38317;53.084;6.960;2023-02-24T18:26:03;5.10;99.90
52387;DHT22;38317;53.084;6.960;2023-02-24T18:28:30;5.00;99.90
52387;DHT22;38317;53.084;6.960;2023-02-24T18:30:56;5.00;99.90
52387;DHT22;38317;53.084;6.960;2023-02-24T18:33:21;5.00;99.90
52387;DHT22;38317;53.084;6.960;2023-02-24T18:35:54;5.00;99.90